sensor_id;sensor_type;location;lat;lon;timestamp;pressure;altitude;pressure_sealevel;temperature;humidity
59435;BME280;45241;49.768;8.636;2023-02-23T00:01:16;99850.19;;;12.84;92.27
59435;BME280;45241;49.768;8.636;2023-02-23T00:03:42;99844.97;;;12.96;92.20
59435;BME280;45241;49.768;8.636;2023-02-23T00:06:08;99844.75;;;12.97;92.40
59435;BME280;45241;49.768;8.636;2023-02-23T00:08:35;99844.78;;;12.90;93.02
59435;BME280;45241;49.768;8.636;2023-02-23T00:11:05;99848.72;;;12.81;94.51
59435;BME280;45241;49.768;8.636;2023-02-23T00:13:35;99844.94;;;12.51;96.10
59435;BME280;45241;49.768;8.636;2023-02-23T00:16:08;99840.31;;;12.65;97.08
59435;BME280;45241;49.768;8.636;2023-02-23T00:18:36;99845.38;;;12.41;99.30
59435;BME280;45241;49.768;8.636;2023-02-23T00:21:23;99837.69;;;12.51;100.00
59435;BME280;45241;49.768;8.636;2023-02-23T00:23:54;99840.03;;;12.35;100.00
59435;BME280;45241;49.768;8.636;2023-02-23T00:26:21;99848.06;;;12.41;100.00
59435;BME280;45241;49.768;8.636;2023-02-23T00:28:48;99840.47;;;12.31;100.00
59435;BME280;45241;49.768;8.636;2023-02-23T00:31:15;99841.47;;;12.37;100.00
59435;BME280;45241;49.768;8.636;2023-02-23T00:33:40;99841.91;;;12.34;100.00
59435;BME280;45241;49.768;8.636;2023-02-23T00:36:09;99843.41;;;12.17;100.00
59435;BME280;45241;49.768;8.636;2023-02-23T00:38:36;99842.41;;;11.98;100.00
59435;BME280;45241;49.768;8.636;2023-02-23T00:41:09;99839.28;;;12.14;100.00
59435;BME280;45241;49.768;8.636;2023-02-23T00:43:37;99841.13;;;12.20;100.00
59435;BME280;45241;49.768;8.636;2023-02-23T00:46:04;99838.22;;;12.15;100.00
59435;BME280;45241;49.768;8.636;2023-02-23T00:48:33;99838.34;;;12.40;100.00
59435;BME280;45241;49.768;8.636;2023-02-23T00:51:04;99842.34;;;12.31;100.00
59435;BME280;45241;49.768;8.636;2023-02-23T00:53:30;99846.75;;;12.06;100.00
59435;BME280;45241;49.768;8.636;2023-02-23T00:55:55;99853.34;;;12.03;100.00
59435;BME280;45241;49.768;8.636;2023-02-23T00:58:22;99855.03;;;12.04;100.00
59435;BME280;45241;49.768;8.636;2023-02-23T01:00:48;99845.91;;;12.12;100.00
59435;BME280;45241;49.768;8.636;2023-02-23T01:03:13;99845.69;;;12.20;100.00
59435;BME280;45241;49.768;8.636;2023-02-23T01:05:39;99844.84;;;12.13;100.00
59435;BME280;45241;49.768;8.636;2023-02-23T01:08:04;99840.69;;;12.30;100.00
59435;BME280;45241;49.768;8.636;2023-02-23T01:10:33;99847.06;;;12.36;100.00
59435;BME280;45241;49.768;8.636;2023-02-23T01:13:00;99846.03;;;12.37;100.00
59435;BME280;45241;49.768;8.636;2023-02-23T01:15:26;99838.56;;;12.45;100.00
59435;BME280;45241;49.768;8.636;2023-02-23T01:17:52;99845.03;;;12.24;100.00
59435;BME280;45241;49.768;8.636;2023-02-23T01:20:17;99846.22;;;12.42;100.00
59435;BME280;45241;49.768;8.636;2023-02-23T01:22:48;99843.28;;;12.50;100.00
59435;BME280;45241;49.768;8.636;2023-02-23T01:25:15;99846.59;;;12.52;100.00
59435;BME280;45241;49.768;8.636;2023-02-23T01:27:41;99832.09;;;12.53;100.00
59435;BME280;45241;49.768;8.636;2023-02-23T01:30:08;99839.13;;;12.54;100.00
59435;BME280;45241;49.768;8.636;2023-02-23T01:32:35;99840.59;;;12.56;100.00
59435;BME280;45241;49.768;8.636;2023-02-23T01:35:06;99832.53;;;12.56;100.00
59435;BME280;45241;49.768;8.636;2023-02-23T01:37:36;99838.47;;;12.65;100.00
59435;BME280;45241;49.768;8.636;2023-02-23T01:40:05;99829.34;;;12.66;100.00
59435;BME280;45241;49.768;8.636;2023-02-23T01:42:38;99832.53;;;12.56;100.00
59435;BME280;45241;49.768;8.636;2023-02-23T01:47:52;99833.75;;;12.60;100.00
59435;BME280;45241;49.768;8.636;2023-02-23T01:50:18;99829.41;;;12.59;100.00
59435;BME280;45241;49.768;8.636;2023-02-23T01:52:46;99832.31;;;12.58;100.00
59435;BME280;45241;49.768;8.636;2023-02-23T01:55:14;99830.69;;;12.50;100.00
59435;BME280;45241;49.768;8.636;2023-02-23T01:57:47;99826.50;;;12.54;100.00
59435;BME280;45241;49.768;8.636;2023-02-23T02:00:14;99823.88;;;12.48;100.00
59435;BME280;45241;49.768;8.636;2023-02-23T02:02:44;99829.38;;;12.01;100.00
59435;BME280;45241;49.768;8.636;2023-02-23T02:05:10;99825.63;;;12.22;100.00
59435;BME280;45241;49.768;8.636;2023-02-23T02:07:41;99828.03;;;12.44;100.00
59435;BME280;45241;49.768;8.636;2023-02-23T02:10:10;99826.34;;;12.43;100.00
59435;BME280;45241;49.768;8.636;2023-02-23T02:12:36;99816.56;;;12.10;100.00
59435;BME280;45241;49.768;8.636;2023-02-23T02:15:04;99822.94;;;12.22;100.00
59435;BME280;45241;49.768;8.636;2023-02-23T02:23:25;99821.63;;;12.38;100.00
59435;BME280;45241;49.768;8.636;2023-02-23T02:34:07;99814.38;;;12.45;100.00
59435;BME280;45241;49.768;8.636;2023-02-23T02:42:19;99809.50;;;12.22;100.00
59435;BME280;45241;49.768;8.636;2023-02-23T02:48:05;99806.31;;;12.39;100.00
59435;BME280;45241;49.768;8.636;2023-02-23T02:50:44;99806.94;;;12.41;100.00
59435;BME280;45241;49.768;8.636;2023-02-23T02:53:17;99795.28;;;12.02;100.00
59435;BME280;45241;49.768;8.636;2023-02-23T02:55:48;99806.97;;;12.34;100.00
59435;BME280;45241;49.768;8.636;2023-02-23T02:58:16;99802.84;;;12.25;100.00
59435;BME280;45241;49.768;8.636;2023-02-23T03:00:47;99810.03;;;11.80;100.00
59435;BME280;45241;49.768;8.636;2023-02-23T03:03:37;99802.47;;;12.15;100.00
59435;BME280;45241;49.768;8.636;2023-02-23T03:06:33;99795.19;;;12.28;100.00
59435;BME280;45241;49.768;8.636;2023-02-23T03:12:56;99793.53;;;12.27;100.00
59435;BME280;45241;49.768;8.636;2023-02-23T03:16:15;99798.63;;;11.97;100.00
59435;BME280;45241;49.768;8.636;2023-02-23T03:19:11;99791.06;;;12.26;100.00
59435;BME280;45241;49.768;8.636;2023-02-23T03:22:07;99793.59;;;12.14;100.00
59435;BME280;45241;49.768;8.636;2023-02-23T03:25:04;99796.88;;;12.23;100.00
59435;BME280;45241;49.768;8.636;2023-02-23T03:27:53;99794.41;;;12.21;100.00
59435;BME280;45241;49.768;8.636;2023-02-23T03:30:46;99787.91;;;11.91;100.00
59435;BME280;45241;49.768;8.636;2023-02-23T03:33:52;99800.78;;;11.42;100.00
59435;BME280;45241;49.768;8.636;2023-02-23T03:36:41;99788.94;;;11.83;100.00
59435;BME280;45241;49.768;8.636;2023-02-23T03:39:39;99798.00;;;11.95;100.00
59435;BME280;45241;49.768;8.636;2023-02-23T03:42:27;99795.09;;;11.90;100.00
59435;BME280;45241;49.768;8.636;2023-02-23T03:45:16;99798.84;;;11.83;100.00
59435;BME280;45241;49.768;8.636;2023-02-23T03:48:03;99802.09;;;12.11;100.00
59435;BME280;45241;49.768;8.636;2023-02-23T03:50:53;99795.28;;;12.09;100.00
59435;BME280;45241;49.768;8.636;2023-02-23T03:53:43;99801.66;;;12.14;100.00
59435;BME280;45241;49.768;8.636;2023-02-23T03:56:32;99794.50;;;11.95;100.00
59435;BME280;45241;49.768;8.636;2023-02-23T03:59:19;99798.00;;;11.89;100.00
59435;BME280;45241;49.768;8.636;2023-02-23T04:02:05;99803.38;;;11.89;100.00
59435;BME280;45241;49.768;8.636;2023-02-23T04:04:51;99804.56;;;12.13;100.00
59435;BME280;45241;49.768;8.636;2023-02-23T04:07:38;99807.75;;;11.77;100.00
59435;BME280;45241;49.768;8.636;2023-02-23T04:10:24;99800.47;;;11.97;100.00
59435;BME280;45241;49.768;8.636;2023-02-23T04:13:13;99803.38;;;11.89;100.00
59435;BME280;45241;49.768;8.636;2023-02-23T04:15:54;99806.66;;;12.04;100.00
59435;BME280;45241;49.768;8.636;2023-02-23T04:18:23;99805.38;;;12.13;100.00
59435;BME280;45241;49.768;8.636;2023-02-23T04:20:49;99803.31;;;12.15;100.00
59435;BME280;45241;49.768;8.636;2023-02-23T04:23:14;99801.25;;;12.17;100.00
59435;BME280;45241;49.768;8.636;2023-02-23T04:25:40;99797.69;;;12.23;100.00
59435;BME280;45241;49.768;8.636;2023-02-23T04:28:05;99803.69;;;12.25;100.00
59435;BME280;45241;49.768;8.636;2023-02-23T04:30:30;99799.84;;;12.01;100.00
59435;BME280;45241;49.768;8.636;2023-02-23T04:32:56;99799.84;;;12.01;100.00
59435;BME280;45241;49.768;8.636;2023-02-23T04:35:23;99808.81;;;11.56;100.00
59435;BME280;45241;49.768;8.636;2023-02-23T04:37:49;99807.72;;;11.96;100.00
59435;BME280;45241;49.768;8.636;2023-02-23T04:40:14;99813.97;;;11.57;100.00
59435;BME280;45241;49.768;8.636;2023-02-23T04:42:40;99812.13;;;11.44;100.00
59435;BME280;45241;49.768;8.636;2023-02-23T04:45:07;99816.81;;;11.76;100.00
59435;BME280;45241;49.768;8.636;2023-02-23T04:47:32;99820.56;;;11.35;100.00
59435;BME280;45241;49.768;8.636;2023-02-23T04:49:57;99822.00;;;11.84;100.00
59435;BME280;45241;49.768;8.636;2023-02-23T04:52:23;99820.50;;;12.01;100.00
59435;BME280;45241;49.768;8.636;2023-02-23T04:54:48;99807.28;;;12.06;100.00
59435;BME280;45241;49.768;8.636;2023-02-23T04:57:13;99824.25;;;11.87;100.00
59435;BME280;45241;49.768;8.636;2023-02-23T04:59:39;99822.78;;;12.04;100.00
59435;BME280;45241;49.768;8.636;2023-02-23T05:02:04;99812.66;;;12.06;100.00
59435;BME280;45241;49.768;8.636;2023-02-23T05:04:31;99811.41;;;12.09;100.00
59435;BME280;45241;49.768;8.636;2023-02-23T05:06:56;99815.09;;;12.14;100.00
59435;BME280;45241;49.768;8.636;2023-02-23T05:09:22;99819.41;;;12.15;100.00
59435;BME280;45241;49.768;8.636;2023-02-23T05:11:47;99815.75;;;12.03;100.00
59435;BME280;45241;49.768;8.636;2023-02-23T05:14:12;99811.19;;;12.03;100.00
59435;BME280;45241;49.768;8.636;2023-02-23T05:16:38;99816.34;;;12.12;100.00
59435;BME280;45241;49.768;8.636;2023-02-23T05:19:04;99813.03;;;12.10;100.00
59435;BME280;45241;49.768;8.636;2023-02-23T05:21:29;99809.31;;;12.17;100.00
59435;BME280;45241;49.768;8.636;2023-02-23T05:23:55;99814.13;;;11.95;100.00
59435;BME280;45241;49.768;8.636;2023-02-23T05:26:21;99812.69;;;11.93;100.00
59435;BME280;45241;49.768;8.636;2023-02-23T05:28:47;99814.47;;;12.12;100.00
59435;BME280;45241;49.768;8.636;2023-02-23T05:31:13;99807.25;;;12.13;100.00
59435;BME280;45241;49.768;8.636;2023-02-23T05:33:38;99811.84;;;11.99;100.00
59435;BME280;45241;49.768;8.636;2023-02-23T05:36:08;99816.19;;;11.93;100.00
59435;BME280;45241;49.768;8.636;2023-02-23T05:38:33;99817.63;;;11.89;100.00
59435;BME280;45241;49.768;8.636;2023-02-23T05:41:03;99819.69;;;11.87;100.00
59435;BME280;45241;49.768;8.636;2023-02-23T05:43:29;99821.56;;;11.87;100.00
59435;BME280;45241;49.768;8.636;2023-02-23T05:45:54;99825.06;;;11.87;100.00
59435;BME280;45241;49.768;8.636;2023-02-23T05:48:19;99818.44;;;11.90;100.00
59435;BME280;45241;49.768;8.636;2023-02-23T05:50:44;99822.63;;;11.72;100.00
59435;BME280;45241;49.768;8.636;2023-02-23T05:53:10;99815.97;;;11.95;100.00
59435;BME280;45241;49.768;8.636;2023-02-23T05:55:35;99824.50;;;11.79;100.00
59435;BME280;45241;49.768;8.636;2023-02-23T05:58:00;99825.31;;;11.79;100.00
59435;BME280;45241;49.768;8.636;2023-02-23T06:00:26;99827.56;;;11.89;100.00
59435;BME280;45241;49.768;8.636;2023-02-23T06:02:51;99832.56;;;11.65;100.00
59435;BME280;45241;49.768;8.636;2023-02-23T06:05:18;99827.97;;;11.86;100.00
59435;BME280;45241;49.768;8.636;2023-02-23T06:07:43;99827.00;;;11.54;100.00
59435;BME280;45241;49.768;8.636;2023-02-23T06:10:09;99826.75;;;11.62;100.00
59435;BME280;45241;49.768;8.636;2023-02-23T06:12:34;99829.66;;;11.60;100.00
59435;BME280;45241;49.768;8.636;2023-02-23T06:15:00;99828.63;;;11.55;100.00
59435;BME280;45241;49.768;8.636;2023-02-23T06:17:25;99830.91;;;11.58;100.00
59435;BME280;45241;49.768;8.636;2023-02-23T06:19:51;99836.91;;;11.47;100.00
59435;BME280;45241;49.768;8.636;2023-02-23T06:22:16;99835.00;;;11.27;100.00
59435;BME280;45241;49.768;8.636;2023-02-23T06:24:42;99842.47;;;11.58;100.00
59435;BME280;45241;49.768;8.636;2023-02-23T06:27:08;99841.63;;;11.51;100.00
59435;BME280;45241;49.768;8.636;2023-02-23T06:29:34;99840.19;;;11.55;100.00
59435;BME280;45241;49.768;8.636;2023-02-23T06:32:01;99844.28;;;11.78;100.00
59435;BME280;45241;49.768;8.636;2023-02-23T06:34:26;99852.16;;;11.86;100.00
59435;BME280;45241;49.768;8.636;2023-02-23T06:36:52;99844.09;;;11.72;100.00
59435;BME280;45241;49.768;8.636;2023-02-23T06:39:17;99848.69;;;11.65;100.00
59435;BME280;45241;49.768;8.636;2023-02-23T06:41:42;99859.81;;;11.62;100.00
59435;BME280;45241;49.768;8.636;2023-02-23T06:44:08;99849.69;;;11.64;100.00
59435;BME280;45241;49.768;8.636;2023-02-23T06:46:33;99851.97;;;11.54;100.00
59435;BME280;45241;49.768;8.636;2023-02-23T06:48:59;99852.38;;;11.31;100.00
59435;BME280;45241;49.768;8.636;2023-02-23T06:51:25;99855.06;;;11.71;100.00
59435;BME280;45241;49.768;8.636;2023-02-23T06:53:50;99856.72;;;11.79;100.00
59435;BME280;45241;49.768;8.636;2023-02-23T06:56:19;99863.97;;;11.52;100.00
59435;BME280;45241;49.768;8.636;2023-02-23T06:58:45;99868.91;;;11.41;100.00
59435;BME280;45241;49.768;8.636;2023-02-23T07:01:10;99870.75;;;11.34;100.00
59435;BME280;45241;49.768;8.636;2023-02-23T07:03:37;99874.88;;;11.37;100.00
59435;BME280;45241;49.768;8.636;2023-02-23T07:06:02;99875.09;;;11.62;100.00
59435;BME280;45241;49.768;8.636;2023-02-23T07:08:30;99871.16;;;11.71;100.00
59435;BME280;45241;49.768;8.636;2023-02-23T07:10:55;99876.13;;;11.54;100.00
59435;BME280;45241;49.768;8.636;2023-02-23T07:13:21;99882.13;;;11.56;100.00
59435;BME280;45241;49.768;8.636;2023-02-23T07:15:47;99883.75;;;11.77;100.00
59435;BME280;45241;49.768;8.636;2023-02-23T07:18:13;99889.94;;;11.64;100.00
59435;BME280;45241;49.768;8.636;2023-02-23T07:20:38;99885.44;;;11.78;100.00
59435;BME280;45241;49.768;8.636;2023-02-23T07:23:03;99881.69;;;11.86;100.00
59435;BME280;45241;49.768;8.636;2023-02-23T07:25:29;99885.59;;;11.90;100.00
59435;BME280;45241;49.768;8.636;2023-02-23T07:27:55;99879.19;;;11.97;100.00
59435;BME280;45241;49.768;8.636;2023-02-23T07:30:20;99891.19;;;12.08;100.00
59435;BME280;45241;49.768;8.636;2023-02-23T07:32:52;99886.00;;;12.00;100.00
59435;BME280;45241;49.768;8.636;2023-02-23T07:35:18;99889.09;;;12.03;100.00
59435;BME280;45241;49.768;8.636;2023-02-23T07:37:44;99889.75;;;11.86;100.00
59435;BME280;45241;49.768;8.636;2023-02-23T07:40:10;99883.53;;;12.05;100.00
59435;BME280;45241;49.768;8.636;2023-02-23T07:42:36;99889.50;;;12.20;100.00
59435;BME280;45241;49.768;8.636;2023-02-23T07:45:01;99889.53;;;12.07;100.00
59435;BME280;45241;49.768;8.636;2023-02-23T07:47:26;99889.94;;;12.17;100.00
59435;BME280;45241;49.768;8.636;2023-02-23T07:49:59;99890.31;;;12.14;100.00
59435;BME280;45241;49.768;8.636;2023-02-23T07:52:26;99891.22;;;11.82;100.00
59435;BME280;45241;49.768;8.636;2023-02-23T07:54:52;99892.44;;;12.06;100.00
59435;BME280;45241;49.768;8.636;2023-02-23T07:57:18;99895.66;;;12.27;100.00
59435;BME280;45241;49.768;8.636;2023-02-23T07:59:45;99894.69;;;12.09;100.00
59435;BME280;45241;49.768;8.636;2023-02-23T08:02:12;99893.63;;;12.23;100.00
59435;BME280;45241;49.768;8.636;2023-02-23T08:04:38;99897.78;;;12.19;100.00
59435;BME280;45241;49.768;8.636;2023-02-23T08:07:05;99901.50;;;12.18;100.00
59435;BME280;45241;49.768;8.636;2023-02-23T08:09:30;99895.75;;;11.94;100.00
59435;BME280;45241;49.768;8.636;2023-02-23T08:11:57;99897.78;;;12.19;100.00
59435;BME280;45241;49.768;8.636;2023-02-23T08:14:22;99909.75;;;12.03;100.00
59435;BME280;45241;49.768;8.636;2023-02-23T08:16:48;99909.78;;;11.90;100.00
59435;BME280;45241;49.768;8.636;2023-02-23T08:19:13;99915.59;;;11.93;100.00
59435;BME280;45241;49.768;8.636;2023-02-23T08:21:39;99913.09;;;11.92;100.00
59435;BME280;45241;49.768;8.636;2023-02-23T08:24:04;99910.38;;;12.18;100.00
59435;BME280;45241;49.768;8.636;2023-02-23T08:26:30;99914.47;;;12.27;100.00
59435;BME280;45241;49.768;8.636;2023-02-23T08:28:55;99909.75;;;12.03;100.00
59435;BME280;45241;49.768;8.636;2023-02-23T08:31:21;99920.69;;;12.28;100.00
59435;BME280;45241;49.768;8.636;2023-02-23T08:33:47;99912.25;;;11.98;100.00
59435;BME280;45241;49.768;8.636;2023-02-23T08:36:12;99921.75;;;12.14;100.00
59435;BME280;45241;49.768;8.636;2023-02-23T08:38:38;99924.66;;;11.72;100.00
59435;BME280;45241;49.768;8.636;2023-02-23T08:41:04;99923.66;;;11.80;100.00
59435;BME280;45241;49.768;8.636;2023-02-23T08:43:30;99923.19;;;12.03;100.00
59435;BME280;45241;49.768;8.636;2023-02-23T08:45:55;99923.41;;;12.08;100.00
59435;BME280;45241;49.768;8.636;2023-02-23T08:48:21;99924.88;;;11.91;100.00
59435;BME280;45241;49.768;8.636;2023-02-23T08:50:47;99928.38;;;11.98;100.00
59435;BME280;45241;49.768;8.636;2023-02-23T08:53:14;99923.84;;;11.85;100.00
59435;BME280;45241;49.768;8.636;2023-02-23T08:55:40;99924.47;;;11.94;100.00
59435;BME280;45241;49.768;8.636;2023-02-23T08:58:07;99922.56;;;12.14;100.00
59435;BME280;45241;49.768;8.636;2023-02-23T09:00:35;99926.94;;;12.09;100.00
59435;BME280;45241;49.768;8.636;2023-02-23T09:03:00;99923.00;;;12.05;100.00
59435;BME280;45241;49.768;8.636;2023-02-23T09:05:26;99929.41;;;12.10;100.00
59435;BME280;45241;49.768;8.636;2023-02-23T09:07:51;99935.63;;;12.04;100.00
59435;BME280;45241;49.768;8.636;2023-02-23T09:10:18;99923.81;;;12.12;100.00
59435;BME280;45241;49.768;8.636;2023-02-23T09:12:44;99928.75;;;12.15;100.00
59435;BME280;45241;49.768;8.636;2023-02-23T09:15:11;99934.13;;;12.15;100.00
59435;BME280;45241;49.768;8.636;2023-02-23T09:17:36;99938.72;;;11.88;100.00
59435;BME280;45241;49.768;8.636;2023-02-23T09:20:03;99931.47;;;12.21;100.00
59435;BME280;45241;49.768;8.636;2023-02-23T09:22:28;99938.88;;;12.26;100.00
59435;BME280;45241;49.768;8.636;2023-02-23T09:24:54;99937.03;;;12.26;100.00
59435;BME280;45241;49.768;8.636;2023-02-23T09:27:19;99939.91;;;12.45;100.00
59435;BME280;45241;49.768;8.636;2023-02-23T09:29:44;99941.34;;;12.41;100.00
59435;BME280;45241;49.768;8.636;2023-02-23T09:32:10;99942.19;;;12.35;100.00
59435;BME280;45241;49.768;8.636;2023-02-23T09:34:35;99941.94;;;12.56;100.00
59435;BME280;45241;49.768;8.636;2023-02-23T09:37:01;99944.28;;;12.19;100.00
59435;BME280;45241;49.768;8.636;2023-02-23T09:39:27;99944.69;;;12.23;100.00
59435;BME280;45241;49.768;8.636;2023-02-23T09:42:09;99942.00;;;12.16;100.00
59435;BME280;45241;49.768;8.636;2023-02-23T09:44:53;99948.81;;;12.32;100.00
59435;BME280;45241;49.768;8.636;2023-02-23T09:47:29;99950.63;;;12.58;100.00
59435;BME280;45241;49.768;8.636;2023-02-23T09:49:58;99947.72;;;12.53;100.00
59435;BME280;45241;49.768;8.636;2023-02-23T09:52:35;99954.13;;;12.52;100.00
59435;BME280;45241;49.768;8.636;2023-02-23T09:55:02;99947.03;;;12.77;100.00
59435;BME280;45241;49.768;8.636;2023-02-23T09:57:38;99945.03;;;12.59;100.00
59435;BME280;45241;49.768;8.636;2023-02-23T10:00:15;99948.06;;;12.83;100.00
59435;BME280;45241;49.768;8.636;2023-02-23T10:03:07;99952.84;;;12.74;100.00
59435;BME280;45241;49.768;8.636;2023-02-23T10:05:40;99960.34;;;12.52;100.00
59435;BME280;45241;49.768;8.636;2023-02-23T10:08:18;99952.94;;;12.28;100.00
59435;BME280;45241;49.768;8.636;2023-02-23T10:10:58;99951.34;;;12.85;100.00
59435;BME280;45241;49.768;8.636;2023-02-23T10:18:39;99964.00;;;12.78;100.00
59435;BME280;45241;49.768;8.636;2023-02-23T10:21:26;99969.19;;;12.66;100.00
59435;BME280;45241;49.768;8.636;2023-02-23T10:23:59;99963.19;;;12.71;100.00
59435;BME280;45241;49.768;8.636;2023-02-23T10:26:34;99970.66;;;12.55;100.00
59435;BME280;45241;49.768;8.636;2023-02-23T10:29:03;99963.63;;;12.54;100.00
59435;BME280;45241;49.768;8.636;2023-02-23T10:31:36;99967.09;;;12.75;100.00
59435;BME280;45241;49.768;8.636;2023-02-23T10:34:10;99970.63;;;12.75;100.00
59435;BME280;45241;49.768;8.636;2023-02-23T10:36:41;99976.22;;;12.67;100.00
59435;BME280;45241;49.768;8.636;2023-02-23T10:39:08;99967.16;;;12.61;100.00
59435;BME280;45241;49.768;8.636;2023-02-23T10:41:36;99968.19;;;12.54;100.00
59435;BME280;45241;49.768;8.636;2023-02-23T10:44:04;99976.19;;;12.80;100.00
59435;BME280;45241;49.768;8.636;2023-02-23T10:46:37;99963.03;;;12.59;100.00
59435;BME280;45241;49.768;8.636;2023-02-23T10:49:03;99960.66;;;12.89;100.00
59435;BME280;45241;49.768;8.636;2023-02-23T10:51:33;99964.38;;;12.88;100.00
59435;BME280;45241;49.768;8.636;2023-02-23T10:56:57;99968.31;;;12.99;100.00
59435;BME280;45241;49.768;8.636;2023-02-23T10:59:23;99966.66;;;12.84;100.00
59435;BME280;45241;49.768;8.636;2023-02-23T11:01:48;99960.44;;;12.97;100.00
59435;BME280;45241;49.768;8.636;2023-02-23T11:04:24;99971.78;;;13.06;100.00
59435;BME280;45241;49.768;8.636;2023-02-23T11:06:50;99973.25;;;13.02;100.00
59435;BME280;45241;49.768;8.636;2023-02-23T11:09:31;99961.59;;;13.21;100.00
59435;BME280;45241;49.768;8.636;2023-02-23T11:12:15;99963.25;;;13.15;100.00
59435;BME280;45241;49.768;8.636;2023-02-23T11:14:46;99969.31;;;13.42;100.00
59435;BME280;45241;49.768;8.636;2023-02-23T11:17:28;99964.44;;;13.26;100.00
59435;BME280;45241;49.768;8.636;2023-02-23T11:20:13;99962.63;;;13.52;100.00
59435;BME280;45241;49.768;8.636;2023-02-23T11:22:43;99967.56;;;13.61;100.00
59435;BME280;45241;49.768;8.636;2023-02-23T11:25:32;99958.13;;;13.77;100.00
59435;BME280;45241;49.768;8.636;2023-02-23T11:27:57;99966.31;;;13.57;98.24
59435;BME280;45241;49.768;8.636;2023-02-23T11:30:28;99953.94;;;13.81;98.09
59435;BME280;45241;49.768;8.636;2023-02-23T11:32:58;99955.53;;;13.57;99.93
59435;BME280;45241;49.768;8.636;2023-02-23T11:35:34;99954.25;;;13.66;97.13
59435;BME280;45241;49.768;8.636;2023-02-23T11:38:14;99942.59;;;13.97;97.67
59435;BME280;45241;49.768;8.636;2023-02-23T11:40:39;99940.53;;;13.99;91.52
59435;BME280;45241;49.768;8.636;2023-02-23T11:43:08;99944.31;;;14.17;93.77
59435;BME280;45241;49.768;8.636;2023-02-23T11:45:47;99938.09;;;14.16;92.21
59435;BME280;45241;49.768;8.636;2023-02-23T11:48:33;99933.81;;;14.52;91.88
59435;BME280;45241;49.768;8.636;2023-02-23T11:51:01;99938.97;;;14.10;92.28
59435;BME280;45241;49.768;8.636;2023-02-23T11:53:36;99935.97;;;14.61;91.50
59435;BME280;45241;49.768;8.636;2023-02-23T11:56:05;99936.03;;;14.12;90.96
59435;BME280;45241;49.768;8.636;2023-02-23T11:58:45;99941.53;;;13.98;92.10
59435;BME280;45241;49.768;8.636;2023-02-23T12:01:15;99934.94;;;14.19;92.91
59435;BME280;45241;49.768;8.636;2023-02-23T12:03:56;99935.66;;;14.33;91.05
59435;BME280;45241;49.768;8.636;2023-02-23T12:11:29;99919.56;;;14.45;88.67
59435;BME280;45241;49.768;8.636;2023-02-23T12:16:43;99910.53;;;14.39;86.40
59435;BME280;45241;49.768;8.636;2023-02-23T12:19:35;99919.34;;;14.46;85.41
59435;BME280;45241;49.768;8.636;2023-02-23T12:22:10;99910.06;;;14.42;83.58
59435;BME280;45241;49.768;8.636;2023-02-23T12:24:38;99909.72;;;14.14;80.92
59435;BME280;45241;49.768;8.636;2023-02-23T12:27:17;99919.00;;;14.18;81.43
59435;BME280;45241;49.768;8.636;2023-02-23T12:32:27;99914.69;;;14.10;80.18
59435;BME280;45241;49.768;8.636;2023-02-23T12:38:03;99909.00;;;14.43;80.52
59435;BME280;45241;49.768;8.636;2023-02-23T12:40:35;99900.16;;;14.73;77.94
59435;BME280;45241;49.768;8.636;2023-02-23T12:46:17;99900.00;;;14.49;77.11
59435;BME280;45241;49.768;8.636;2023-02-23T12:49:03;99893.72;;;14.55;77.08
59435;BME280;45241;49.768;8.636;2023-02-23T12:51:40;99889.81;;;14.70;78.71
59435;BME280;45241;49.768;8.636;2023-02-23T12:54:10;99890.94;;;15.10;76.66
59435;BME280;45241;49.768;8.636;2023-02-23T12:57:07;99901.75;;;15.52;75.99
59435;BME280;45241;49.768;8.636;2023-02-23T13:05:31;99887.16;;;15.41;74.88
59435;BME280;45241;49.768;8.636;2023-02-23T13:08:03;99888.66;;;15.25;74.46
59435;BME280;45241;49.768;8.636;2023-02-23T13:13:50;99892.06;;;15.63;74.31
59435;BME280;45241;49.768;8.636;2023-02-23T13:21:28;99886.38;;;15.52;72.97
59435;BME280;45241;49.768;8.636;2023-02-23T13:24:06;99886.53;;;15.58;73.37
59435;BME280;45241;49.768;8.636;2023-02-23T13:29:43;99884.81;;;15.03;74.13
59435;BME280;45241;49.768;8.636;2023-02-23T13:32:12;99887.56;;;14.85;75.01
59435;BME280;45241;49.768;8.636;2023-02-23T13:34:43;99884.41;;;14.88;75.61
59435;BME280;45241;49.768;8.636;2023-02-23T13:37:12;99881.44;;;14.78;76.79
59435;BME280;45241;49.768;8.636;2023-02-23T13:39:47;99879.41;;;15.03;76.84
59435;BME280;45241;49.768;8.636;2023-02-23T13:45:35;99880.03;;;14.87;77.99
59435;BME280;45241;49.768;8.636;2023-02-23T13:48:05;99878.75;;;14.78;78.09
59435;BME280;45241;49.768;8.636;2023-02-23T13:53:38;99889.59;;;14.34;79.45
59435;BME280;45241;49.768;8.636;2023-02-23T13:56:18;99883.25;;;14.95;77.98
59435;BME280;45241;49.768;8.636;2023-02-23T13:59:01;99881.69;;;14.88;78.16
59435;BME280;45241;49.768;8.636;2023-02-23T14:01:35;99889.56;;;14.16;81.30
59435;BME280;45241;49.768;8.636;2023-02-23T14:04:04;99881.63;;;14.21;79.64
59435;BME280;45241;49.768;8.636;2023-02-23T14:06:33;99889.97;;;14.38;80.66
59435;BME280;45241;49.768;8.636;2023-02-23T14:09:32;99892.47;;;14.40;81.48
59435;BME280;45241;49.768;8.636;2023-02-23T14:20:12;99881.97;;;14.68;79.34
59435;BME280;45241;49.768;8.636;2023-02-23T14:41:21;99882.94;;;14.37;81.22
59435;BME280;45241;49.768;8.636;2023-02-23T14:43:53;99881.22;;;14.61;80.26
59435;BME280;45241;49.768;8.636;2023-02-23T14:46:22;99877.72;;;14.42;79.16
59435;BME280;45241;49.768;8.636;2023-02-23T14:48:57;99875.41;;;14.76;78.52
59435;BME280;45241;49.768;8.636;2023-02-23T14:51:32;99874.91;;;14.49;78.60
59435;BME280;45241;49.768;8.636;2023-02-23T14:53:59;99873.47;;;14.83;77.80
59435;BME280;45241;49.768;8.636;2023-02-23T14:56:24;99860.19;;;14.51;78.57